METAR AND TAF INFORMATION
METAR FOR WSSS
ADDS - METARS form results

(2214 UTC 18 January 2021)
Data provider http://aviationweather.gov/metar/data/
 
METAR text: WSSS 182200Z 34004KT 310V010 9999 FEW018 BKN300 24/22 Q1010 NOSIG
Conditions at: WSSS (SINGAPORE/CHANGI, SG) observed 2200 UTC 18 January 2021
Temperature: 24.0°C (75°F)
Dewpoint: 22.0°C (72°F) [RH = 89%]
Pressure (altimeter): 29.82 inches Hg (1010.0 mb)
Winds: from the NNW (340 degrees) at 5 MPH (4 knots; 2.1 m/s)
Visibility: 6 or more miles (10+ km)
Ceiling: 30000 feet AGL
Clouds: few clouds at 1800 feet AGL
broken clouds at 30000 feet AGL
Weather: no significant weather observed at this time

METAR text: WSSS 182130Z 34007KT 9999 FEW018 BKN300 25/22 Q1010 NOSIG
Conditions at: WSSS (SINGAPORE/CHANGI, SG) observed 2130 UTC 18 January 2021
Temperature: 25.0°C (77°F)
Dewpoint: 22.0°C (72°F) [RH = 83%]
Pressure (altimeter): 29.82 inches Hg (1010.0 mb)
Winds: from the NNW (340 degrees) at 8 MPH (7 knots; 3.6 m/s)
Visibility: 6 or more miles (10+ km)
Ceiling: 30000 feet AGL
Clouds: few clouds at 1800 feet AGL
broken clouds at 30000 feet AGL
Weather: no significant weather observed at this time

Forecast for: WSSS (SINGAPORE/CHANGI, SG)
Text: TAF WSSS 181700Z 1818/2000 01011KT 9999 SCT015
Forecast period: 1800 UTC 18 January 2021 to 0000 UTC 20 January 2021
Forecast type: FROM: standard forecast or significant change
Winds: from the N (10 degrees) at 13 MPH (11 knots; 5.7 m/s)
Visibility: 6 or more miles (10+ km)
Ceiling: at least 12,000 feet AGL
Clouds: scattered clouds at 1500 feet AGL
Weather: no significant weather forecast for this period

 AIRPORT MAP

 RUNWAY INFORMATION
Runway 02C Runway length 13123 ft Runway width 197 ft
Runway elevation 15 ft Runway displaced threshold 0 ft Runway heading 23
Runway 20C Runway length 13123 ft Runway width 197 ft
Runway elevation 15 ft Runway displaced threshold 0 ft Runway heading 203
Runway 02L Runway length 13123 ft Runway width 197 ft
Runway elevation 22 ft Runway displaced threshold 0 ft Runway heading 23
Runway 20R Runway length 13123 ft Runway width 197 ft
Runway elevation 14 ft Runway displaced threshold 2429 ft Runway heading 203
Runway 02R Runway length 9015 ft Runway width 195 ft
Runway elevation 0 ft Runway displaced threshold 0 ft Runway heading 23
Runway 20L Runway length 9015 ft Runway width 195 ft
Runway elevation 0 ft Runway displaced threshold 0 ft Runway heading 203

 AIRPORT FREQUENCIES
Type A/D Name APP/DEP Frequency 120.3 MHZ
Type ARR Name ARR Frequency 119.3 MHZ
Type ATIS Name ATIS Frequency 128.6 MHZ
Type CLD Name CLNC DEL Frequency 121.65 MHZ
Type GND Name GND Frequency 124.3 MHZ
Type TWR Name TWR Frequency 118.6 MHZ

 AIRPORT NEAR NAVIGATION AIDS
Type NDB Name Bedok Frequency 232 KHZ
Type VOR-DME Name Tekong Frequency 116500 KHZ



Powered by Virtual Airlines Manager [[v2.6.2]]